createdAt,value
2019-01-30T00:01:29.636Z,18.30
2019-01-30T00:03:57.412Z,13.77
2019-01-30T00:06:25.224Z,15.53
2019-01-30T00:08:53.000Z,14.93
2019-01-30T00:11:20.818Z,11.73
2019-01-30T00:13:48.626Z,15.33
2019-01-30T00:16:16.675Z,15.40
2019-01-30T00:18:44.441Z,13.87
2019-01-30T00:21:12.465Z,17.33
2019-01-30T00:23:40.239Z,15.00
2019-01-30T00:26:08.084Z,13.57
2019-01-30T00:28:36.037Z,16.87
2019-01-30T00:31:03.952Z,13.53
2019-01-30T00:33:31.827Z,15.57
2019-01-30T00:35:59.661Z,15.33
2019-01-30T00:38:27.438Z,13.57
2019-01-30T00:40:55.244Z,11.90
2019-01-30T00:43:23.180Z,13.50
2019-01-30T00:45:51.115Z,13.70
2019-01-30T00:48:19.147Z,12.37
2019-01-30T00:50:46.978Z,14.50
2019-01-30T00:53:14.912Z,14.93
2019-01-30T00:55:42.760Z,12.20
2019-01-30T00:58:10.535Z,13.10
2019-01-30T01:00:38.482Z,14.27
2019-01-30T01:03:06.514Z,18.70
2019-01-30T01:05:34.300Z,13.23
2019-01-30T01:08:02.120Z,13.00
2019-01-30T01:10:29.910Z,11.63
2019-01-30T01:12:57.953Z,11.73
2019-01-30T01:15:25.838Z,12.77
2019-01-30T01:17:53.853Z,10.47
2019-01-30T01:20:21.816Z,12.00
2019-01-30T01:22:50.126Z,11.07
2019-01-30T01:25:18.500Z,12.33
2019-01-30T01:27:46.772Z,8.63
2019-01-30T01:30:24.852Z,11.97
2019-01-30T01:32:48.214Z,9.60
2019-01-30T01:35:16.085Z,10.60
2019-01-30T01:37:44.062Z,9.57
2019-01-30T01:40:13.245Z,9.50
2019-01-30T01:42:41.243Z,11.00
2019-01-30T01:45:12.769Z,10.50
2019-01-30T01:47:40.799Z,9.70
2019-01-30T01:50:11.109Z,10.20
2019-01-30T01:52:39.233Z,10.63
2019-01-30T01:55:07.763Z,10.63
2019-01-30T01:57:35.703Z,10.17
2019-01-30T02:00:05.523Z,11.10
2019-01-30T02:02:33.337Z,10.17
2019-01-30T02:05:01.241Z,8.03
2019-01-30T02:07:29.055Z,8.67
2019-01-30T02:09:56.975Z,9.50
2019-01-30T02:12:24.921Z,9.53
2019-01-30T02:14:52.681Z,9.33
2019-01-30T02:17:20.473Z,8.77
2019-01-30T02:19:48.459Z,9.73
2019-01-30T02:22:16.411Z,9.47
2019-01-30T02:24:44.191Z,9.37
2019-01-30T02:27:11.993Z,9.30
2019-01-30T02:29:39.963Z,9.67
2019-01-30T02:32:07.780Z,8.43
2019-01-30T02:34:35.549Z,9.57
2019-01-30T02:37:03.339Z,9.63
2019-01-30T02:39:31.117Z,7.90
2019-01-30T02:41:58.883Z,9.80
2019-01-30T02:44:26.837Z,10.53
2019-01-30T02:46:54.645Z,9.07
2019-01-30T02:49:22.546Z,11.83
2019-01-30T02:51:50.362Z,9.97
2019-01-30T02:54:18.125Z,9.67
2019-01-30T02:56:45.884Z,10.50
2019-01-30T02:59:13.863Z,10.60
2019-01-30T03:02:01.206Z,10.70
2019-01-30T03:04:28.996Z,11.73
2019-01-30T03:06:56.759Z,9.30
2019-01-30T03:09:24.722Z,9.00
2019-01-30T03:11:52.507Z,10.13
2019-01-30T03:14:20.617Z,10.90
2019-01-30T03:16:48.447Z,11.50
2019-01-30T03:19:16.387Z,9.17
2019-01-30T03:21:44.136Z,11.37
2019-01-30T03:24:12.113Z,11.50
2019-01-30T03:26:39.909Z,10.07
2019-01-30T03:29:07.730Z,10.27
2019-01-30T03:31:35.482Z,9.80
2019-01-30T03:34:04.220Z,10.90
2019-01-30T03:36:31.982Z,12.23
2019-01-30T03:38:59.769Z,12.40
2019-01-30T03:41:27.529Z,11.37
2019-01-30T03:43:55.314Z,10.80
2019-01-30T03:46:23.254Z,11.57
2019-01-30T03:48:51.199Z,13.23
2019-01-30T03:51:18.985Z,12.90
2019-01-30T03:53:46.760Z,15.10
2019-01-30T03:56:14.509Z,12.03
2019-01-30T03:58:42.294Z,11.77
2019-01-30T04:01:10.187Z,15.73
2019-01-30T04:03:37.938Z,17.13
2019-01-30T04:06:05.699Z,12.00
2019-01-30T04:08:33.451Z,12.20
2019-01-30T04:11:01.201Z,13.47
2019-01-30T04:13:28.939Z,13.17
2019-01-30T04:15:56.719Z,13.03
2019-01-30T04:18:24.499Z,15.23
2019-01-30T04:20:52.417Z,13.27
2019-01-30T04:23:20.184Z,13.77
2019-01-30T04:25:47.968Z,14.27
2019-01-30T04:28:15.746Z,13.33
2019-01-30T04:30:43.726Z,15.00
2019-01-30T04:33:11.546Z,13.70
2019-01-30T04:35:39.381Z,12.43
2019-01-30T04:38:07.289Z,14.70
2019-01-30T04:40:35.168Z,13.90
2019-01-30T04:43:02.949Z,14.47
2019-01-30T04:45:30.941Z,13.90
2019-01-30T04:47:58.801Z,14.03
2019-01-30T04:50:26.740Z,17.17
2019-01-30T04:52:54.532Z,15.17
2019-01-30T04:55:22.345Z,15.50
2019-01-30T04:57:50.201Z,16.77
2019-01-30T05:00:21.250Z,14.00
2019-01-30T05:02:49.013Z,13.50
2019-01-30T05:05:16.928Z,16.73
2019-01-30T05:07:44.665Z,12.70
2019-01-30T05:10:12.876Z,15.43
2019-01-30T05:12:40.672Z,13.73
2019-01-30T05:15:17.149Z,13.13
2019-01-30T05:17:45.030Z,16.53
2019-01-30T05:20:14.866Z,14.53
2019-01-30T05:22:42.836Z,13.87
2019-01-30T05:25:10.973Z,13.17
2019-01-30T05:27:38.864Z,15.50
2019-01-30T05:30:16.618Z,14.43
2019-01-30T05:32:47.511Z,13.60
2019-01-30T05:35:15.430Z,15.97
2019-01-30T05:37:43.414Z,17.30
2019-01-30T05:40:12.812Z,17.03
2019-01-30T05:42:40.764Z,14.90
2019-01-30T05:45:11.413Z,15.33
2019-01-30T05:47:39.425Z,14.73
2019-01-30T05:50:07.520Z,16.17
2019-01-30T05:52:35.339Z,13.43
2019-01-30T05:55:04.533Z,16.90
2019-01-30T05:57:32.474Z,16.00
2019-01-30T06:00:00.371Z,15.83
2019-01-30T06:02:31.263Z,14.73
2019-01-30T06:04:59.059Z,14.73
2019-01-30T06:07:26.956Z,17.93
2019-01-30T06:09:54.828Z,19.30
2019-01-30T06:12:22.840Z,19.20
2019-01-30T06:14:50.670Z,19.07
2019-01-30T06:17:18.446Z,18.77
2019-01-30T06:19:46.233Z,16.63
2019-01-30T06:22:14.241Z,15.27
2019-01-30T06:24:42.016Z,16.47
2019-01-30T06:27:09.819Z,17.17
2019-01-30T06:29:37.575Z,14.83
2019-01-30T06:32:05.378Z,17.53
2019-01-30T06:34:33.251Z,16.47
2019-01-30T06:37:01.059Z,15.97
2019-01-30T06:39:28.857Z,17.87
2019-01-30T06:41:56.641Z,17.10
2019-01-30T06:44:24.567Z,17.33
2019-01-30T06:46:52.331Z,18.37
2019-01-30T06:49:20.111Z,17.53
2019-01-30T06:51:47.883Z,18.77
2019-01-30T06:54:15.882Z,20.13
2019-01-30T06:56:43.734Z,17.83
2019-01-30T06:59:11.532Z,19.37
2019-01-30T07:01:39.425Z,18.27
2019-01-30T07:04:07.403Z,16.63
2019-01-30T07:06:35.358Z,16.40
2019-01-30T07:09:08.700Z,18.53
2019-01-30T07:11:36.495Z,18.77
2019-01-30T07:14:04.344Z,18.13
2019-01-30T07:16:32.150Z,20.37
2019-01-30T07:19:00.054Z,17.97
2019-01-30T07:21:28.021Z,17.87
2019-01-30T07:23:56.120Z,17.50
2019-01-30T07:26:23.994Z,15.73
2019-01-30T07:28:51.813Z,17.47
2019-01-30T07:31:19.574Z,14.77
2019-01-30T07:33:47.381Z,17.37
2019-01-30T07:36:15.208Z,14.97
2019-01-30T07:38:43.197Z,15.20
2019-01-30T07:41:10.940Z,14.80
2019-01-30T07:43:38.695Z,15.60
2019-01-30T07:46:06.496Z,17.47
2019-01-30T07:48:34.262Z,12.40
2019-01-30T07:51:02.041Z,15.27
2019-01-30T07:53:30.118Z,13.30
2019-01-30T07:55:57.886Z,12.80
2019-01-30T07:58:27.677Z,12.80
2019-01-30T08:00:55.489Z,18.23
2019-01-30T08:03:23.376Z,13.13
2019-01-30T08:05:51.177Z,15.23
2019-01-30T08:08:19.231Z,16.50
2019-01-30T08:10:47.071Z,13.17
2019-01-30T08:13:14.987Z,15.93
2019-01-30T08:15:42.728Z,12.93
2019-01-30T08:18:10.608Z,13.70
2019-01-30T08:20:38.528Z,12.73
2019-01-30T08:23:06.340Z,14.50
2019-01-30T08:25:34.161Z,12.10
2019-01-30T08:28:02.241Z,13.43
2019-01-30T08:30:30.947Z,12.13
2019-01-30T08:33:04.757Z,10.40
2019-01-30T08:35:33.205Z,13.90
2019-01-30T08:38:01.058Z,13.70
2019-01-30T08:40:28.953Z,11.50
2019-01-30T08:42:56.751Z,13.60
2019-01-30T08:45:29.883Z,12.47
2019-01-30T08:47:57.648Z,10.97
2019-01-30T08:50:25.900Z,11.60
2019-01-30T08:52:53.709Z,10.37
2019-01-30T08:55:21.528Z,11.27
2019-01-30T08:57:49.304Z,12.23
2019-01-30T09:00:19.273Z,12.20
2019-01-30T09:02:47.352Z,10.97
2019-01-30T09:05:15.419Z,10.73
2019-01-30T09:07:44.543Z,10.90
2019-01-30T09:10:16.805Z,10.17
2019-01-30T09:12:44.579Z,9.50
2019-01-30T09:15:15.098Z,9.10
2019-01-30T09:17:42.996Z,11.33
2019-01-30T09:20:14.212Z,11.30
2019-01-30T09:22:42.037Z,9.90
2019-01-30T09:25:12.974Z,11.67
2019-01-30T09:27:40.774Z,11.50
2019-01-30T09:30:18.992Z,9.37
2019-01-30T09:32:46.521Z,10.13
2019-01-30T09:35:14.503Z,9.07
2019-01-30T09:37:42.349Z,12.17
2019-01-30T09:40:10.578Z,9.03
2019-01-30T09:42:38.376Z,8.33
2019-01-30T09:45:09.934Z,9.30
2019-01-30T09:47:37.407Z,10.03
2019-01-30T09:50:07.915Z,10.53
2019-01-30T09:52:35.718Z,11.90
2019-01-30T09:55:04.786Z,10.87
2019-01-30T09:57:32.562Z,8.27
2019-01-30T10:00:00.418Z,9.93
2019-01-30T10:02:28.397Z,10.83
2019-01-30T10:04:56.156Z,8.93
2019-01-30T10:07:23.977Z,9.83
2019-01-30T10:09:51.813Z,11.90
2019-01-30T10:12:19.611Z,11.70
2019-01-30T10:14:47.390Z,9.20
2019-01-30T10:17:15.234Z,8.73
2019-01-30T10:19:43.039Z,9.03
2019-01-30T10:22:10.977Z,11.37
2019-01-30T10:24:38.792Z,9.07
2019-01-30T10:27:06.587Z,9.60
2019-01-30T10:29:34.373Z,9.73
2019-01-30T10:32:02.149Z,9.40
2019-01-30T10:34:29.905Z,8.97
2019-01-30T10:36:57.629Z,7.67
2019-01-30T10:39:25.404Z,8.60
2019-01-30T10:41:53.221Z,9.20
2019-01-30T10:44:21.075Z,8.97
2019-01-30T10:46:48.856Z,6.90
2019-01-30T10:49:16.701Z,9.43
2019-01-30T10:51:44.526Z,8.67
2019-01-30T10:54:12.342Z,6.67
2019-01-30T10:56:40.147Z,6.67
2019-01-30T10:59:07.959Z,8.27
2019-01-30T11:01:35.920Z,9.40
2019-01-30T11:04:04.883Z,10.77
2019-01-30T11:06:32.672Z,7.13
2019-01-30T11:09:00.491Z,7.67
2019-01-30T11:11:28.294Z,5.87
2019-01-30T11:13:56.221Z,7.27
2019-01-30T11:16:24.028Z,6.97
2019-01-30T11:18:51.816Z,8.87
2019-01-30T11:21:19.676Z,5.80
2019-01-30T11:23:47.506Z,6.20
2019-01-30T11:26:15.318Z,7.27
2019-01-30T11:28:43.096Z,9.37
2019-01-30T11:31:10.982Z,8.03
2019-01-30T11:33:41.049Z,6.63
2019-01-30T11:36:08.835Z,9.93
2019-01-30T11:38:36.626Z,5.90
2019-01-30T11:41:04.390Z,6.77
2019-01-30T11:43:32.190Z,9.47
2019-01-30T11:45:59.958Z,8.43
2019-01-30T11:48:28.118Z,7.97
2019-01-30T11:50:55.885Z,8.80
2019-01-30T11:53:23.704Z,5.87
2019-01-30T11:55:51.553Z,7.37
2019-01-30T11:58:19.351Z,9.33
2019-01-30T12:00:54.522Z,10.07
2019-01-30T12:03:22.298Z,7.43
2019-01-30T12:05:50.114Z,8.17
2019-01-30T12:08:18.006Z,7.13
2019-01-30T12:10:45.824Z,8.40
2019-01-30T12:13:13.601Z,8.87
2019-01-30T12:15:41.398Z,7.30
2019-01-30T12:18:09.262Z,7.37
2019-01-30T12:20:37.116Z,8.10
2019-01-30T12:23:06.028Z,7.63
2019-01-30T12:25:33.898Z,9.53
2019-01-30T12:28:01.730Z,9.47
2019-01-30T12:30:29.756Z,8.47
2019-01-30T12:32:57.733Z,9.83
2019-01-30T12:35:25.903Z,11.60
2019-01-30T12:37:53.698Z,9.83
2019-01-30T12:40:21.658Z,7.67
2019-01-30T12:42:49.808Z,8.23
2019-01-30T12:45:32.365Z,7.47
2019-01-30T12:48:00.509Z,8.37
2019-01-30T12:50:28.423Z,8.07
2019-01-30T12:52:56.324Z,7.33
2019-01-30T12:55:24.092Z,8.63
2019-01-30T12:57:52.089Z,9.50
2019-01-30T13:00:23.633Z,9.03
2019-01-30T13:02:51.557Z,9.00
2019-01-30T13:05:21.088Z,7.60
2019-01-30T13:07:48.939Z,9.17
2019-01-30T13:10:16.823Z,8.67
2019-01-30T13:12:44.676Z,9.60
2019-01-30T13:15:14.811Z,11.27
2019-01-30T13:17:42.781Z,7.60
2019-01-30T13:20:14.371Z,10.20
2019-01-30T13:22:42.148Z,11.13
2019-01-30T13:25:10.223Z,12.70
2019-01-30T13:27:38.037Z,9.10
2019-01-30T13:30:11.983Z,8.93
2019-01-30T13:32:39.804Z,9.67
2019-01-30T13:35:08.034Z,7.47
2019-01-30T13:37:35.906Z,13.07
2019-01-30T13:40:08.110Z,9.33
2019-01-30T13:42:36.112Z,9.90
2019-01-30T13:45:05.546Z,9.07
2019-01-30T13:47:33.612Z,10.57
2019-01-30T13:50:01.529Z,10.13
2019-01-30T13:52:29.296Z,10.90
2019-01-30T13:54:57.088Z,10.63
2019-01-30T13:57:24.868Z,10.23
2019-01-30T13:59:52.678Z,11.23
2019-01-30T14:02:20.510Z,7.53
2019-01-30T14:04:48.336Z,10.33
2019-01-30T14:07:16.154Z,12.07
2019-01-30T14:09:43.978Z,10.43
2019-01-30T14:12:11.719Z,8.87
2019-01-30T14:14:39.506Z,12.63
2019-01-30T14:17:07.262Z,11.07
2019-01-30T14:19:35.092Z,10.33
2019-01-30T14:22:02.864Z,9.97
2019-01-30T14:24:30.693Z,10.10
2019-01-30T14:26:58.629Z,13.60
2019-01-30T14:29:26.456Z,10.03
2019-01-30T14:31:54.224Z,9.53
2019-01-30T14:34:22.012Z,10.07
2019-01-30T14:36:49.833Z,10.77
2019-01-30T14:39:17.669Z,12.03
2019-01-30T14:41:45.515Z,9.97
2019-01-30T14:44:13.409Z,12.33
2019-01-30T14:46:41.392Z,12.13
2019-01-30T14:49:09.252Z,9.47
2019-01-30T14:51:37.023Z,11.17
2019-01-30T14:54:04.850Z,9.60
2019-01-30T14:56:32.633Z,10.33
2019-01-30T14:59:00.664Z,13.63
2019-01-30T15:01:28.607Z,12.03
2019-01-30T15:03:56.419Z,10.50
2019-01-30T15:06:24.196Z,9.20
2019-01-30T15:08:51.997Z,11.73
2019-01-30T15:11:25.563Z,9.10
2019-01-30T15:13:53.384Z,11.07
2019-01-30T15:16:22.418Z,11.93
2019-01-30T15:18:50.418Z,12.10
2019-01-30T15:21:18.403Z,9.93
2019-01-30T15:23:46.238Z,10.87
2019-01-30T15:26:14.071Z,10.90
2019-01-30T15:28:41.846Z,11.30
2019-01-30T15:31:09.638Z,11.00
2019-01-30T15:33:37.507Z,13.37
2019-01-30T15:36:05.314Z,11.07
2019-01-30T15:38:33.219Z,10.53
2019-01-30T15:41:01.092Z,10.97
2019-01-30T15:43:28.865Z,11.80
2019-01-30T15:45:56.594Z,9.70
2019-01-30T15:48:24.646Z,12.03
2019-01-30T15:50:52.558Z,9.30
2019-01-30T15:53:22.918Z,12.43
2019-01-30T15:55:50.928Z,14.03
2019-01-30T15:58:19.022Z,11.60
2019-01-30T16:01:04.582Z,11.07
2019-01-30T16:03:32.491Z,10.80
2019-01-30T16:06:00.316Z,10.37
2019-01-30T16:08:28.064Z,11.97
2019-01-30T16:10:55.980Z,10.60
2019-01-30T16:13:23.807Z,11.63
2019-01-30T16:15:56.153Z,11.80
2019-01-30T16:18:25.172Z,11.63
2019-01-30T16:20:52.957Z,13.40
2019-01-30T16:23:20.735Z,13.50
2019-01-30T16:25:48.562Z,11.97
2019-01-30T16:28:16.342Z,12.77
2019-01-30T16:30:44.184Z,14.03
2019-01-30T16:33:12.002Z,12.80
2019-01-30T16:35:39.810Z,15.50
2019-01-30T16:38:07.670Z,14.13
2019-01-30T16:40:35.564Z,13.43
2019-01-30T16:43:04.321Z,12.57
2019-01-30T16:45:32.627Z,10.37
2019-01-30T16:48:00.407Z,11.83
2019-01-30T16:50:28.249Z,11.50
2019-01-30T16:52:56.073Z,11.43
2019-01-30T16:55:24.206Z,14.40
2019-01-30T16:57:52.606Z,13.53
2019-01-30T17:00:23.962Z,12.10
2019-01-30T17:02:51.878Z,15.93
2019-01-30T17:05:19.833Z,13.10
2019-01-30T17:07:47.629Z,12.80
2019-01-30T17:10:16.446Z,13.30
2019-01-30T17:12:44.463Z,13.77
2019-01-30T17:15:16.155Z,13.57
2019-01-30T17:17:44.003Z,12.90
2019-01-30T17:20:16.440Z,12.60
2019-01-30T17:22:44.265Z,13.17
2019-01-30T17:25:12.623Z,13.87
2019-01-30T17:27:40.431Z,14.70
2019-01-30T17:30:16.383Z,13.63
2019-01-30T17:32:44.224Z,14.67
2019-01-30T17:35:12.447Z,14.73
2019-01-30T17:37:40.233Z,12.10
2019-01-30T17:40:13.742Z,13.00
2019-01-30T17:42:41.600Z,13.17
2019-01-30T17:45:09.653Z,13.33
2019-01-30T17:47:37.522Z,14.47
2019-01-30T17:50:07.556Z,14.13
2019-01-30T17:52:35.445Z,14.60
2019-01-30T17:55:05.236Z,14.53
2019-01-30T17:57:33.212Z,12.73
2019-01-30T18:00:04.721Z,12.03
2019-01-30T18:02:32.577Z,13.73
2019-01-30T18:05:02.198Z,14.00
2019-01-30T18:07:30.042Z,12.97
2019-01-30T18:09:57.896Z,13.83
2019-01-30T18:12:25.740Z,16.20
2019-01-30T18:14:53.577Z,16.50
2019-01-30T18:17:21.502Z,13.13
2019-01-30T18:19:49.306Z,13.30
2019-01-30T18:22:17.152Z,15.47
2019-01-30T18:24:45.064Z,13.40
2019-01-30T18:27:12.872Z,15.30
2019-01-30T18:29:40.761Z,15.67
2019-01-30T18:32:08.549Z,12.50
2019-01-30T18:34:36.375Z,13.83
2019-01-30T18:37:04.488Z,13.17
2019-01-30T18:39:32.329Z,12.03
2019-01-30T18:42:00.158Z,15.13
2019-01-30T18:44:27.963Z,12.53
2019-01-30T18:46:58.043Z,12.93
2019-01-30T18:49:25.833Z,11.17
2019-01-30T18:51:53.621Z,13.70
2019-01-30T18:54:21.513Z,12.07
2019-01-30T18:56:49.435Z,12.67
2019-01-30T18:59:17.225Z,12.57
2019-01-30T19:01:45.076Z,11.60
2019-01-30T19:04:12.859Z,12.33
2019-01-30T19:06:51.707Z,14.53
2019-01-30T19:09:10.895Z,13.20
2019-01-30T19:11:38.735Z,12.80
2019-01-30T19:14:06.583Z,14.03
2019-01-30T19:16:34.331Z,11.20
2019-01-30T19:19:02.134Z,11.57
2019-01-30T19:21:29.965Z,12.77
2019-01-30T19:23:57.777Z,11.00
2019-01-30T19:26:25.634Z,11.13
2019-01-30T19:28:53.469Z,11.20
2019-01-30T19:31:21.252Z,11.37
2019-01-30T19:33:49.057Z,14.60
2019-01-30T19:36:16.865Z,12.77
2019-01-30T19:38:44.624Z,13.60
2019-01-30T19:41:12.470Z,12.10
2019-01-30T19:43:40.271Z,11.30
2019-01-30T19:46:08.085Z,12.87
2019-01-30T19:48:35.890Z,11.57
2019-01-30T19:51:03.823Z,12.80
2019-01-30T19:53:31.643Z,12.87
2019-01-30T19:55:59.523Z,12.13
2019-01-30T19:58:27.388Z,12.20
2019-01-30T20:00:55.218Z,10.30
2019-01-30T20:03:27.820Z,11.03
2019-01-30T20:05:55.698Z,13.20
2019-01-30T20:08:23.732Z,10.23
2019-01-30T20:10:51.556Z,9.87
2019-01-30T20:13:19.350Z,10.37
2019-01-30T20:15:47.222Z,11.37
2019-01-30T20:18:15.120Z,9.80
2019-01-30T20:20:42.933Z,11.27
2019-01-30T20:23:14.414Z,10.93
2019-01-30T20:25:43.919Z,10.60
2019-01-30T20:28:12.784Z,9.80
2019-01-30T20:30:40.596Z,10.23
2019-01-30T20:33:08.384Z,12.40
2019-01-30T20:35:36.261Z,9.73
2019-01-30T20:38:04.739Z,12.03
2019-01-30T20:40:32.563Z,10.53
2019-01-30T20:43:00.710Z,10.37
2019-01-30T20:45:33.903Z,10.70
2019-01-30T20:47:58.328Z,11.93
2019-01-30T20:50:27.994Z,10.00
2019-01-30T20:52:56.150Z,10.50
2019-01-30T20:55:24.145Z,9.97
2019-01-30T20:57:52.050Z,13.43
2019-01-30T21:00:26.031Z,12.53
2019-01-30T21:02:53.893Z,9.00
2019-01-30T21:05:21.659Z,10.83
2019-01-30T21:07:49.471Z,12.10
2019-01-30T21:10:20.991Z,10.07
2019-01-30T21:12:48.859Z,12.20
2019-01-30T21:15:16.967Z,9.90
2019-01-30T21:17:44.801Z,10.90
2019-01-30T21:20:13.145Z,9.73
2019-01-30T21:22:40.967Z,10.30
2019-01-30T21:25:13.038Z,10.23
2019-01-30T21:27:40.891Z,11.03
2019-01-30T21:30:11.498Z,10.07
2019-01-30T21:32:39.341Z,9.47
2019-01-30T21:35:07.231Z,10.07
2019-01-30T21:37:35.048Z,9.03
2019-01-30T21:40:03.795Z,9.90
2019-01-30T21:42:31.642Z,9.57
2019-01-30T21:44:59.424Z,10.20
2019-01-30T21:47:27.256Z,9.77
2019-01-30T21:49:55.056Z,8.53
2019-01-30T21:52:22.940Z,11.23
2019-01-30T21:54:50.714Z,9.67
2019-01-30T21:57:18.537Z,7.50
2019-01-30T21:59:46.522Z,10.27
2019-01-30T22:02:14.300Z,7.77
2019-01-30T22:04:42.110Z,8.37
2019-01-30T22:07:09.890Z,7.80
2019-01-30T22:09:37.694Z,7.53
2019-01-30T22:12:05.576Z,9.60
2019-01-30T22:14:33.439Z,9.10
2019-01-30T22:17:02.690Z,7.50
2019-01-30T22:19:30.516Z,8.77
2019-01-30T22:21:58.358Z,7.57
2019-01-30T22:24:26.202Z,9.10
2019-01-30T22:26:53.992Z,8.73
2019-01-30T22:29:21.832Z,7.53
2019-01-30T22:31:49.972Z,7.60
2019-01-30T22:34:17.800Z,8.87
2019-01-30T22:36:45.613Z,8.30
2019-01-30T22:39:13.436Z,6.93
2019-01-30T22:41:41.266Z,7.57
2019-01-30T22:44:09.090Z,7.93
2019-01-30T22:46:36.932Z,7.57
2019-01-30T22:49:04.728Z,7.77
2019-01-30T22:51:32.525Z,8.23
2019-01-30T22:54:00.321Z,6.77
2019-01-30T22:56:28.147Z,6.60
2019-01-30T22:58:55.982Z,5.83
2019-01-30T23:01:50.107Z,5.87
2019-01-30T23:05:11.239Z,5.27
2019-01-30T23:08:22.929Z,6.50
2019-01-30T23:11:17.369Z,5.90
2019-01-30T23:14:05.629Z,6.93
2019-01-30T23:17:39.949Z,4.73
2019-01-30T23:20:25.538Z,5.67
2019-01-30T23:23:49.805Z,4.75
2019-01-30T23:26:42.991Z,5.90
2019-01-30T23:29:57.753Z,5.13
2019-01-30T23:33:41.395Z,5.60
2019-01-30T23:37:12.785Z,4.03
2019-01-30T23:40:46.079Z,5.23
2019-01-30T23:43:45.313Z,3.90
2019-01-30T23:47:00.334Z,4.00
2019-01-30T23:50:36.864Z,4.47
2019-01-30T23:53:47.511Z,3.73
2019-01-30T23:57:04.434Z,4.20
